TimePST,TemperatureF,Dew PointF,Humidity,Sea Level PressureIn,VisibilityMPH,Wind Direction,Wind SpeedMPH,Gust SpeedMPH,PrecipitationIn,Events,Conditions,WindDirDegrees,DateUTC
12:53 AM,44.1,43.0,96,30.02,10.0,ENE,3.5,-,N/A,,Scattered Clouds,70,2013-03-07 08:53:00
1:53 AM,44.1,43.0,96,30.01,10.0,Calm,Calm,-,N/A,,Mostly Cloudy,0,2013-03-07 09:53:00
2:53 AM,43.0,43.0,100,29.99,10.0,East,4.6,-,N/A,,Mostly Cloudy,80,2013-03-07 10:53:00
3:53 AM,45.0,44.1,97,29.98,10.0,East,5.8,-,N/A,,Mostly Cloudy,90,2013-03-07 11:53:00
4:53 AM,42.1,42.1,100,29.98,10.0,ENE,4.6,-,N/A,,Mostly Cloudy,60,2013-03-07 12:53:00
5:53 AM,44.1,43.0,96,29.98,10.0,Calm,Calm,-,N/A,,Overcast,0,2013-03-07 13:53:00
6:53 AM,46.9,45.0,93,29.98,10.0,Calm,Calm,-,N/A,,Overcast,0,2013-03-07 14:53:00
7:53 AM,48.0,45.0,89,29.97,10.0,East,5.8,-,N/A,,Overcast,100,2013-03-07 15:53:00
8:53 AM,52.0,44.1,74,29.98,10.0,ESE,5.8,-,N/A,,Overcast,110,2013-03-07 16:53:00
9:53 AM,55.0,42.1,62,29.97,10.0,ESE,4.6,-,N/A,,Mostly Cloudy,110,2013-03-07 17:53:00
10:53 AM,55.0,37.9,53,29.96,10.0,South,5.8,-,N/A,,Mostly Cloudy,170,2013-03-07 18:53:00
11:53 AM,55.9,37.9,51,29.95,10.0,South,4.6,-,N/A,,Mostly Cloudy,170,2013-03-07 19:53:00
12:53 PM,57.9,37.0,46,29.93,10.0,SW,5.8,-,N/A,,Mostly Cloudy,220,2013-03-07 20:53:00
1:53 PM,57.9,37.0,46,29.90,10.0,West,3.5,-,N/A,,Mostly Cloudy,270,2013-03-07 21:53:00
2:53 PM,57.9,41.0,53,29.89,10.0,WNW,10.4,-,N/A,,Mostly Cloudy,300,2013-03-07 22:53:00
3:53 PM,57.0,42.1,57,29.88,10.0,WNW,12.7,-,N/A,,Mostly Cloudy,290,2013-03-07 23:53:00
4:53 PM,54.0,46.9,77,29.89,10.0,West,13.8,-,0.00,Rain,Rain,270,2013-03-08 00:53:00
5:53 PM,52.0,48.0,86,29.88,10.0,WNW,10.4,-,0.03,,Mostly Cloudy,300,2013-03-08 01:53:00
6:53 PM,53.1,48.9,86,29.89,10.0,WNW,9.2,-,N/A,,Mostly Cloudy,290,2013-03-08 02:53:00
7:53 PM,52.0,48.9,89,29.89,10.0,West,11.5,-,N/A,,Overcast,280,2013-03-08 03:53:00
8:53 PM,52.0,50.0,93,29.91,7.0,WNW,5.8,-,0.00,Rain,Light Rain,290,2013-03-08 04:53:00
9:11 PM,51.8,48.2,88,29.91,9.0,WNW,6.9,-,0.02,Rain,Rain,290,2013-03-08 05:11:00
9:31 PM,50.0,48.2,94,29.91,9.0,NW,5.8,-,0.03,Rain,Light Rain,320,2013-03-08 05:31:00
9:53 PM,51.1,50.0,96,29.90,10.0,West,13.8,-,0.04,Rain,Light Rain,280,2013-03-08 05:53:00
10:53 PM,51.1,45.0,80,29.90,10.0,West,10.4,-,0.00,Rain,Light Rain,280,2013-03-08 06:53:00
11:02 PM,51.8,44.6,76,29.90,10.0,West,10.4,-,0.00,Rain,Light Rain,280,2013-03-08 07:02:00
11:14 PM,51.8,44.6,76,29.89,10.0,WNW,10.4,-,0.00,Rain,Light Rain,290,2013-03-08 07:14:00
11:21 PM,51.8,51.8,100,29.89,10.0,WNW,8.1,-,0.00,Rain,Light Rain,300,2013-03-08 07:21:00
11:33 PM,51.8,50.0,94,29.89,10.0,North,3.5,-,0.00,,Overcast,350,2013-03-08 07:33:00
11:53 PM,50.0,50.0,100,29.89,10.0,Calm,Calm,-,0.00,,Overcast,0,2013-03-08 07:53:00